Rural Grove, New York
Current Conditions -  °F | °C
As of 9:15 AM on Thursday 23 Oct 2014 (Local Time) from KNY0 Reporting Station
Overcast Overcast  
Wind Chill: 41°   Ceiling: 1700
Heat Index: 44°   Visibility: 2.5mi
Dew Point: 44°   Wind: 6mph
Humidity: 97%   Direction: 280°W
Pressure: 29.87"   Gusts: NA
Location:  42.8384°N, 74.4592°W
Report Text: KNY0 231315Z AUTO 28005KT 2 1/2SM SCT006 BKN017 OVC023 07/07 A2987 RMK AO2 P0003 T00690065
Loading
Personal Weather Stations






























Interactive Weather Map
Tropical Storm Tracking
New forecast layout! Learn more

10-Day Weather Forecast

Advertisements
Track Severe Weather on mobile